Time;durP1;ratioP1;P1;durP2;ratioP2;P2;SDS_P1;SDS_P2;PMS_P1;PMS_P2;Temp;Humidity;BMP_temperature;BMP_pressure;BME280_temperature;BME280_humidity;BME280_pressure;Samples;Min_cycle;Max_cycle;Signal;HPM_P1;HPM_P2
2022/03/15 00:00:10;;;;;;;2.08;1.88;;;19.60;37.00;;;;;;6209567;23;20176;-71
2022/03/15 00:02:40;;;;;;;2.40;2.20;;;19.60;37.10;;;;;;6217049;23;20164;-72
2022/03/15 00:05:09;;;;;;;1.95;1.80;;;19.60;37.10;;;;;;6215134;23;20171;-72
2022/03/15 00:07:36;;;;;;;2.00;1.90;;;19.60;37.20;;;;;;6215398;23;20192;-72
2022/03/15 00:10:06;;;;;;;2.10;1.90;;;19.50;37.10;;;;;;6215394;23;20202;-72
2022/03/15 00:12:34;;;;;;;2.30;2.10;;;19.50;37.10;;;;;;6215426;23;20225;-71
2022/03/15 00:15:02;;;;;;;2.08;1.85;;;19.50;37.20;;;;;;6215527;23;20191;-72
2022/03/15 00:17:32;;;;;;;2.28;1.85;;;19.50;37.30;;;;;;6215677;23;20666;-71
2022/03/15 00:20:00;;;;;;;2.13;1.92;;;19.40;37.20;;;;;;6215597;23;20171;-72
2022/03/15 00:22:27;;;;;;;2.95;1.80;;;19.40;37.20;;;;;;6190575;23;20210;-70
2022/03/15 00:24:54;;;;;;;2.08;1.90;;;19.40;37.30;;;;;;6215707;23;20168;-71
2022/03/15 00:27:23;;;;;;;1.95;1.70;;;19.40;37.40;;;;;;6215175;23;20314;-71
2022/03/15 00:29:51;;;;;;;2.15;1.90;;;19.40;37.40;;;;;;6215489;23;20171;-71
2022/03/15 00:32:19;;;;;;;2.08;1.80;;;19.40;37.40;;;;;;6215484;23;20174;-71
2022/03/15 00:34:49;;;;;;;2.00;1.90;;;19.40;37.40;;;;;;6215488;23;20184;-71
2022/03/15 00:37:16;;;;;;;2.67;2.10;;;19.30;37.40;;;;;;6216394;23;20218;-71
2022/03/15 00:39:44;;;;;;;1.92;1.80;;;19.30;37.40;;;;;;6215726;23;20171;-71
2022/03/15 00:42:12;;;;;;;2.17;1.90;;;19.30;37.40;;;;;;6217709;23;20625;-73
2022/03/15 00:44:40;;;;;;;2.28;1.92;;;19.30;37.40;;;;;;6190682;23;20172;-72
2022/03/15 00:47:08;;;;;;;2.92;1.90;;;19.30;37.50;;;;;;6189880;23;20222;-71
2022/03/15 00:49:40;;;;;;;2.45;2.25;;;19.30;37.40;;;;;;6215410;23;20627;-72
2022/03/15 00:52:07;;;;;;;1.90;1.80;;;19.30;37.40;;;;;;6215232;23;20179;-71
2022/03/15 00:54:35;;;;;;;2.03;1.83;;;19.20;37.40;;;;;;6216033;23;20184;-72
2022/03/15 00:57:02;;;;;;;2.00;1.90;;;19.20;37.50;;;;;;6215603;23;20496;-71
2022/03/15 00:59:30;;;;;;;2.42;2.00;;;19.20;37.50;;;;;;6215637;23;20258;-71
2022/03/15 01:01:59;;;;;;;2.47;2.28;;;19.20;37.50;;;;;;6215245;23;20206;-71
2022/03/15 01:04:26;;;;;;;3.40;2.13;;;19.20;37.50;;;;;;6215772;23;20565;-71
2022/03/15 01:06:54;;;;;;;2.20;2.00;;;19.20;37.60;;;;;;6215093;23;20175;-71
2022/03/15 01:09:22;;;;;;;2.65;2.10;;;19.20;37.60;;;;;;6217440;23;20172;-71
2022/03/15 01:11:51;;;;;;;1.95;1.80;;;19.20;37.60;;;;;;6190404;23;20182;-71
2022/03/15 01:14:18;;;;;;;2.50;2.22;;;19.20;37.70;;;;;;6215447;23;20171;-71
2022/03/15 01:16:46;;;;;;;2.13;1.92;;;19.20;37.60;;;;;;6215565;23;20628;-71
2022/03/15 01:19:15;;;;;;;1.98;1.77;;;19.10;37.60;;;;;;6216015;23;20175;-72
2022/03/15 01:21:42;;;;;;;4.13;2.10;;;19.10;37.60;;;;;;6218794;23;20168;-72
2022/03/15 01:24:09;;;;;;;2.40;2.00;;;19.10;37.50;;;;;;6216994;23;20167;-72
2022/03/15 01:26:38;;;;;;;2.20;1.95;;;19.10;37.50;;;;;;6217566;23;20175;-71
2022/03/15 01:29:05;;;;;;;2.15;2.00;;;19.10;37.60;;;;;;6192496;23;20540;-72
2022/03/15 01:31:33;;;;;;;2.20;2.00;;;19.10;37.70;;;;;;6217438;23;20181;-72
2022/03/15 01:34:00;;;;;;;2.78;1.90;;;19.00;37.60;;;;;;6217532;23;20175;-71
2022/03/15 01:36:30;;;;;;;2.88;1.98;;;19.00;37.70;;;;;;6192013;23;20237;-71
2022/03/15 01:38:59;;;;;;;2.20;2.00;;;19.10;37.80;;;;;;6217080;23;20191;-71
2022/03/15 01:41:35;;;;;;;2.03;1.90;;;19.00;37.70;;;;;;6216936;23;20175;-71
2022/03/15 01:44:03;;;;;;;2.53;1.90;;;19.10;37.90;;;;;;6216407;23;20164;-71
2022/03/15 01:46:30;;;;;;;2.35;1.90;;;19.00;37.70;;;;;;6218309;23;20209;-72
2022/03/15 01:48:58;;;;;;;2.78;1.90;;;19.00;37.80;;;;;;6216454;23;20217;-72
2022/03/15 01:51:26;;;;;;;2.15;1.95;;;19.00;37.80;;;;;;6216407;23;20241;-72
2022/03/15 01:53:55;;;;;;;1.80;1.70;;;19.00;37.90;;;;;;6216390;23;20172;-71
2022/03/15 01:56:22;;;;;;;3.40;1.90;;;19.00;37.90;;;;;;6216259;23;20191;-71
2022/03/15 01:58:52;;;;;;;2.13;1.92;;;18.90;37.90;;;;;;6216909;23;20205;-71
2022/03/15 02:01:19;;;;;;;1.98;1.85;;;18.90;38.50;;;;;;6216538;23;20202;-71
2022/03/15 02:03:47;;;;;;;2.95;1.80;;;18.90;38.00;;;;;;6216286;23;20518;-71
2022/03/15 02:06:15;;;;;;;2.35;2.00;;;18.90;37.90;;;;;;6218166;23;20668;-71
2022/03/15 02:08:42;;;;;;;2.00;1.80;;;18.90;37.90;;;;;;6216581;23;20278;-71
2022/03/15 02:11:13;;;;;;;2.00;1.80;;;18.90;37.90;;;;;;6216781;23;20176;-72
2022/03/15 02:13:41;;;;;;;2.22;2.00;;;18.90;37.90;;;;;;6217922;23;20525;-71
2022/03/15 02:16:08;;;;;;;2.20;2.00;;;18.90;38.00;;;;;;6216635;23;20183;-71
2022/03/15 02:18:36;;;;;;;1.85;1.75;;;18.90;38.00;;;;;;6216515;23;20197;-71
2022/03/15 02:21:05;;;;;;;2.03;1.83;;;18.80;37.90;;;;;;6216657;23;20178;-72
2022/03/15 02:23:32;;;;;;;2.25;2.05;;;18.90;38.10;;;;;;6217033;23;20262;-71
2022/03/15 02:26:00;;;;;;;1.98;1.80;;;18.80;38.00;;;;;;6217401;23;20171;-72
2022/03/15 02:28:28;;;;;;;1.98;1.83;;;18.90;38.10;;;;;;6217565;23;20283;-72
2022/03/15 02:30:56;;;;;;;2.63;2.10;;;18.80;38.00;;;;;;6217166;23;20199;-71
2022/03/15 02:33:23;;;;;;;2.47;2.00;;;18.80;38.00;;;;;;6218904;23;20582;-71
2022/03/15 02:35:51;;;;;;;2.33;1.85;;;18.80;38.00;;;;;;6217567;23;20608;-72
2022/03/15 02:38:21;;;;;;;2.78;2.17;;;18.80;38.00;;;;;;6217269;23;20580;-71
2022/03/15 02:40:49;;;;;;;1.80;1.70;;;18.80;38.00;;;;;;6218119;23;20195;-71
2022/03/15 02:43:17;;;;;;;1.90;1.80;;;18.80;38.10;;;;;;6217220;23;20171;-72
2022/03/15 02:45:44;;;;;;;2.08;1.98;;;18.80;38.10;;;;;;6217799;23;20167;-72
2022/03/15 02:48:12;;;;;;;1.85;1.75;;;18.80;38.10;;;;;;6219013;23;20214;-71
2022/03/15 02:50:40;;;;;;;2.25;1.83;;;18.80;38.10;;;;;;6192563;23;20574;-71
2022/03/15 02:53:08;;;;;;;2.17;1.98;;;18.70;38.00;;;;;;6218194;23;20221;-71
2022/03/15 02:55:37;;;;;;;2.08;1.98;;;18.80;38.10;;;;;;6219455;23;20195;-71
2022/03/15 02:58:05;;;;;;;1.90;1.80;;;18.70;38.10;;;;;;6220229;23;20645;-71
2022/03/15 03:00:32;;;;;;;2.10;2.00;;;18.70;38.10;;;;;;6218492;23;20187;-71
2022/03/15 03:03:00;;;;;;;2.22;1.73;;;18.70;38.00;;;;;;6218390;23;20519;-72
2022/03/15 03:05:41;;;;;;;;;;;;;;;;;;;;;
2022/03/15 03:08:10;;;;;;;1.85;1.70;;;18.70;38.00;;;;;;6220771;23;20270;-72
2022/03/15 03:10:39;;;;;;;2.10;1.90;;;18.60;38.00;;;;;;6219250;23;20175;-72
2022/03/15 03:13:08;;;;;;;1.90;1.80;;;18.60;38.10;;;;;;6194407;23;20194;-72
2022/03/15 03:15:35;;;;;;;1.90;1.80;;;18.70;38.10;;;;;;6220559;23;20180;-72
2022/03/15 03:18:02;;;;;;;2.95;2.28;;;18.60;38.10;;;;;;6217927;23;20191;-72
2022/03/15 03:20:30;;;;;;;2.13;1.65;;;18.60;38.10;;;;;;6219028;23;20171;-71
2022/03/15 03:23:01;;;;;;;2.10;1.90;;;18.60;38.10;;;;;;6220639;23;20331;-71
2022/03/15 03:25:30;;;;;;;2.00;1.80;;;18.60;38.10;;;;;;6218853;23;20214;-71
2022/03/15 03:28:00;;;;;;;2.13;1.90;;;18.60;38.10;;;;;;6219214;23;20201;-72
2022/03/15 03:30:29;;;;;;;2.25;2.05;;;18.60;38.20;;;;;;6219620;23;20177;-71
2022/03/15 03:32:57;;;;;;;3.80;2.08;;;18.60;38.80;;;;;;6220121;23;20171;-72
2022/03/15 03:35:24;;;;;;;2.42;2.05;;;18.60;38.20;;;;;;6195665;23;20234;-71
2022/03/15 03:37:53;;;;;;;2.05;1.85;;;18.50;38.10;;;;;;6221270;23;20219;-71
2022/03/15 03:40:20;;;;;;;2.05;1.95;;;18.50;38.10;;;;;;6220531;23;20231;-72
2022/03/15 03:42:47;;;;;;;2.22;2.03;;;18.50;38.10;;;;;;6219899;23;20485;-72
2022/03/15 03:45:16;;;;;;;2.53;2.00;;;18.50;38.20;;;;;;6222239;23;20632;-72
2022/03/15 03:47:46;;;;;;;2.10;1.90;;;18.60;38.20;;;;;;6195538;23;20720;-72
2022/03/15 03:50:13;;;;;;;2.05;1.95;;;18.50;38.20;;;;;;6219444;23;20175;-72
2022/03/15 03:52:41;;;;;;;2.00;1.90;;;18.50;38.20;;;;;;6219378;23;20171;-71
2022/03/15 03:55:09;;;;;;;2.38;2.17;;;18.50;38.20;;;;;;6220431;23;20167;-71
2022/03/15 03:57:37;;;;;;;2.10;1.80;;;18.50;38.30;;;;;;6194482;23;20664;-72
2022/03/15 04:00:06;;;;;;;1.92;1.83;;;18.50;38.20;;;;;;6218908;23;20175;-71
2022/03/15 04:02:41;;;;;;;1.98;1.85;;;18.50;38.20;;;;;;6220321;23;20159;-72
2022/03/15 04:05:09;;;;;;;2.53;2.10;;;18.50;38.20;;;;;;6218716;23;20175;-72
2022/03/15 04:07:39;;;;;;;2.10;1.90;;;18.50;38.20;;;;;;6219518;23;20683;-71
2022/03/15 04:10:08;;;;;;;1.98;1.83;;;18.50;38.30;;;;;;6221357;23;20168;-72
2022/03/15 04:12:36;;;;;;;2.20;2.10;;;18.50;38.30;;;;;;6217699;23;20168;-71
2022/03/15 04:15:03;;;;;;;2.08;1.88;;;18.40;38.30;;;;;;6219561;23;20259;-71
2022/03/15 04:17:30;;;;;;;2.10;1.90;;;18.50;38.30;;;;;;6217917;23;20244;-72
2022/03/15 04:19:59;;;;;;;2.20;2.00;;;18.50;38.30;;;;;;6218112;23;20262;-72
2022/03/15 04:22:27;;;;;;;2.33;1.92;;;18.50;38.30;;;;;;6219385;23;20171;-72
2022/03/15 04:24:55;;;;;;;2.55;2.30;;;18.50;38.30;;;;;;6218038;23;20171;-71
2022/03/15 04:27:22;;;;;;;1.95;1.85;;;18.50;38.50;;;;;;6192516;23;20663;-71
2022/03/15 04:29:49;;;;;;;2.53;2.00;;;18.50;38.50;;;;;;6218120;23;20186;-72
2022/03/15 04:32:18;;;;;;;2.13;1.92;;;18.50;38.40;;;;;;6219000;23;20217;-71
2022/03/15 04:34:45;;;;;;;2.15;1.95;;;18.50;38.30;;;;;;6192964;23;20179;-71
2022/03/15 04:37:14;;;;;;;2.97;2.00;;;18.50;38.80;;;;;;6218193;23;20203;-71
2022/03/15 04:39:41;;;;;;;2.50;2.30;;;18.50;38.20;;;;;;6219285;23;20172;-72
2022/03/15 04:42:09;;;;;;;2.65;2.10;;;18.50;38.10;;;;;;6218251;23;20179;-72
2022/03/15 04:44:36;;;;;;;2.03;1.92;;;18.50;38.10;;;;;;6192676;23;20558;-71
2022/03/15 04:47:04;;;;;;;2.10;1.98;;;18.60;38.10;;;;;;6218278;23;20598;-72
2022/03/15 04:49:32;;;;;;;2.97;1.80;;;18.60;38.10;;;;;;6218325;23;20181;-71
2022/03/15 04:51:59;;;;;;;2.38;2.05;;;18.60;38.80;;;;;;6218018;23;20554;-71
2022/03/15 04:54:29;;;;;;;2.42;2.20;;;18.60;38.10;;;;;;6218383;23;20167;-72
2022/03/15 04:56:56;;;;;;;2.38;2.15;;;18.60;38.10;;;;;;6216897;23;20532;-72
2022/03/15 04:59:24;;;;;;;2.45;2.22;;;18.60;38.10;;;;;;6192028;23;20209;-71
2022/03/15 05:01:51;;;;;;;2.17;1.95;;;18.60;38.20;;;;;;6217088;23;20181;-71
2022/03/15 05:04:19;;;;;;;2.63;2.20;;;18.60;38.10;;;;;;6217526;23;20176;-72
2022/03/15 05:06:46;;;;;;;2.17;2.03;;;18.50;38.10;;;;;;6193102;23;20194;-72
2022/03/15 05:09:13;;;;;;;2.40;2.08;;;18.50;38.10;;;;;;6217376;23;20199;-72
2022/03/15 05:11:46;;;;;;;2.97;2.22;;;18.50;38.20;;;;;;6217505;23;20181;-72
2022/03/15 05:14:15;;;;;;;2.30;2.10;;;18.50;38.20;;;;;;6217431;23;20250;-71
2022/03/15 05:16:43;;;;;;;2.83;2.20;;;18.50;38.30;;;;;;6219338;23;20175;-70
2022/03/15 05:19:11;;;;;;;2.85;2.20;;;18.50;38.20;;;;;;6218018;23;20258;-72
2022/03/15 05:21:38;;;;;;;2.05;1.85;;;18.50;38.20;;;;;;6219399;23;20195;-71
2022/03/15 05:24:06;;;;;;;2.15;2.05;;;18.50;38.10;;;;;;6219587;23;20171;-69
2022/03/15 05:26:33;;;;;;;2.40;2.10;;;18.50;38.10;;;;;;6217110;23;20171;-71
2022/03/15 05:29:04;;;;;;;2.88;2.22;;;18.50;38.00;;;;;;6192653;23;20191;-71
2022/03/15 05:31:31;;;;;;;1.90;1.80;;;18.50;38.10;;;;;;6220487;23;20152;-71
2022/03/15 05:33:59;;;;;;;2.47;2.10;;;18.50;37.90;;;;;;6218940;23;20605;-71
2022/03/15 05:36:26;;;;;;;2.40;2.20;;;18.50;37.90;;;;;;6218135;23;20541;-72
2022/03/15 05:41:55;;;;;;;2.60;2.40;;;18.60;38.20;;;;;;6188242;22;20278;-72
2022/03/15 05:44:26;;;;;;;2.50;2.30;;;18.60;38.70;;;;;;6225103;23;20171;-72
2022/03/15 05:46:53;;;;;;;2.40;2.20;;;18.60;38.60;;;;;;6210075;22;20207;-71
2022/03/15 05:49:20;;;;;;;2.13;2.03;;;18.60;38.10;;;;;;6191657;23;20242;-73
2022/03/15 05:51:49;;;;;;;4.00;2.17;;;18.70;38.10;;;;;;6166369;23;20196;-73
2022/03/15 05:54:16;;;;;;;2.88;2.30;;;18.70;38.20;;;;;;6166950;23;20173;-73
2022/03/15 05:59:44;;;;;;;2.50;2.30;;;18.70;38.10;;;;;;6130088;23;20220;-73
2022/03/15 06:02:11;;;;;;;3.03;2.40;;;18.80;38.10;;;;;;6103243;23;20180;-72
2022/03/15 06:04:38;;;;;;;3.50;2.50;;;18.80;38.00;;;;;;6130481;23;20165;-72
2022/03/15 06:07:06;;;;;;;3.08;2.50;;;18.80;37.80;;;;;;6132895;23;20166;-73
2022/03/15 06:09:33;;;;;;;2.83;2.20;;;18.80;38.10;;;;;;6108199;23;20256;-72
2022/03/15 06:12:00;;;;;;;2.50;2.30;;;18.80;37.90;;;;;;6130510;23;20234;-72
2022/03/15 06:14:28;;;;;;;5.00;2.40;;;18.90;38.10;;;;;;6131455;23;20173;-72
2022/03/15 06:16:59;;;;;;;2.50;2.30;;;18.90;37.80;;;;;;6162233;23;20217;-71
2022/03/15 06:19:27;;;;;;;3.00;2.50;;;18.90;37.90;;;;;;6161043;23;20161;-72
2022/03/15 06:21:54;;;;;;;2.60;2.40;;;18.90;37.80;;;;;;6160036;23;20615;-72
2022/03/15 06:24:22;;;;;;;2.50;2.30;;;18.90;37.70;;;;;;6161450;23;20164;-72
2022/03/15 06:26:49;;;;;;;3.90;2.60;;;18.90;37.90;;;;;;6159900;23;20223;-71
2022/03/15 06:29:16;;;;;;;2.63;2.42;;;19.00;37.90;;;;;;6161465;23;20243;-72
2022/03/15 06:31:44;;;;;;;2.97;2.33;;;18.90;37.80;;;;;;6159814;23;20172;-72
2022/03/15 06:34:13;;;;;;;3.10;2.50;;;18.90;37.70;;;;;;6160400;23;20173;-71
2022/03/15 06:36:41;;;;;;;4.00;2.55;;;18.90;37.70;;;;;;6161574;23;20200;-72
2022/03/15 06:39:09;;;;;;;2.70;2.50;;;19.00;37.70;;;;;;6159788;23;20252;-72
2022/03/15 06:41:37;;;;;;;3.30;2.67;;;19.00;37.60;;;;;;6162465;23;20168;-72
2022/03/15 06:44:05;;;;;;;3.15;2.85;;;19.00;37.50;;;;;;6159755;23;20212;-72
2022/03/15 06:46:32;;;;;;;3.22;2.80;;;19.00;37.40;;;;;;6160384;23;20172;-72
2022/03/15 06:51:38;;;;;;;2.90;2.60;;;19.00;37.20;;;;;;6244320;22;20264;-72
2022/03/15 06:54:06;;;;;;;3.15;2.80;;;19.00;37.20;;;;;;6223691;23;20175;-72
2022/03/15 06:56:40;;;;;;;2.88;2.67;;;19.10;37.10;;;;;;6250351;23;20254;-72
2022/03/15 06:59:07;;;;;;;3.22;2.50;;;19.10;37.00;;;;;;6221958;23;20210;-72
2022/03/15 07:01:34;;;;;;;3.33;2.85;;;19.10;37.00;;;;;;6193103;23;20182;-72
2022/03/15 07:04:02;;;;;;;2.58;2.38;;;19.10;37.00;;;;;;6193417;23;20263;-72
2022/03/15 07:06:30;;;;;;;2.85;2.47;;;19.10;36.80;;;;;;6194055;23;20509;-71
2022/03/15 07:08:58;;;;;;;2.72;2.50;;;19.20;36.80;;;;;;6193557;23;20195;-71
2022/03/15 07:11:25;;;;;;;4.55;3.10;;;19.20;36.80;;;;;;6193900;23;20173;-71
2022/03/15 07:13:53;;;;;;;3.63;3.00;;;19.20;36.70;;;;;;6193661;23;20176;-71
2022/03/15 07:16:21;;;;;;;3.47;3.03;;;19.20;36.70;;;;;;6193073;23;20263;-71
2022/03/15 07:18:49;;;;;;;3.50;2.72;;;19.20;36.60;;;;;;6220547;23;20267;-70
2022/03/15 07:21:17;;;;;;;3.30;3.00;;;19.20;36.60;;;;;;6220068;23;20167;-71
2022/03/15 07:23:45;;;;;;;3.30;3.00;;;19.20;36.60;;;;;;6193362;23;20182;-73
2022/03/15 07:26:13;;;;;;;3.40;3.10;;;19.20;36.50;;;;;;6193520;23;20198;-73
2022/03/15 07:28:40;;;;;;;3.00;2.80;;;19.30;36.40;;;;;;6193380;23;20251;-73
2022/03/15 07:31:07;;;;;;;3.70;3.15;;;19.30;36.40;;;;;;6193419;23;20172;-73
2022/03/15 07:33:35;;;;;;;6.22;3.22;;;19.30;36.30;;;;;;6193513;23;20199;-74
2022/03/15 07:36:02;;;;;;;3.72;3.10;;;19.30;36.20;;;;;;6193416;23;20191;-73
2022/03/15 07:38:32;;;;;;;3.10;2.78;;;19.30;36.10;;;;;;6193996;23;20201;-73
2022/03/15 07:41:01;;;;;;;3.42;2.67;;;19.30;36.10;;;;;;6193828;23;20230;-73
2022/03/15 07:43:29;;;;;;;4.00;3.10;;;19.30;36.20;;;;;;6194139;23;20202;-74
2022/03/15 07:45:57;;;;;;;3.83;3.00;;;19.30;36.10;;;;;;6193955;23;20171;-73
2022/03/15 07:48:25;;;;;;;4.90;3.47;;;19.30;36.10;;;;;;6194141;23;20271;-73
2022/03/15 07:50:53;;;;;;;4.47;3.08;;;19.30;36.10;;;;;;6194348;23;20179;-73
2022/03/15 07:53:21;;;;;;;3.80;2.75;;;19.30;36.10;;;;;;6195313;23;20171;-73
2022/03/15 07:55:49;;;;;;;3.15;2.95;;;19.40;36.00;;;;;;6195153;23;20259;-73
2022/03/15 07:58:17;;;;;;;4.20;3.10;;;19.30;36.10;;;;;;6195154;23;20324;-73
2022/03/15 08:00:47;;;;;;;4.40;3.13;;;19.30;36.00;;;;;;6222759;23;20183;-73
2022/03/15 08:03:15;;;;;;;4.45;3.20;;;19.40;36.10;;;;;;6196611;23;20167;-73
2022/03/15 08:05:43;;;;;;;3.13;2.90;;;19.40;36.00;;;;;;6222962;23;20218;-73
2022/03/15 08:08:10;;;;;;;3.20;2.90;;;19.40;36.20;;;;;;6195543;23;20533;-73
2022/03/15 08:10:38;;;;;;;3.50;3.00;;;19.40;36.20;;;;;;6195239;23;20203;-73
2022/03/15 08:13:06;;;;;;;3.40;3.08;;;19.40;36.10;;;;;;6194842;23;20502;-71
2022/03/15 08:15:34;;;;;;;4.38;3.03;;;19.40;36.20;;;;;;6195734;23;20175;-71
2022/03/15 08:18:03;;;;;;;3.70;3.30;;;19.40;36.10;;;;;;6194451;23;20223;-73
2022/03/15 08:20:33;;;;;;;5.55;3.05;;;19.40;35.90;;;;;;6194520;23;20167;-73
2022/03/15 08:23:01;;;;;;;3.55;3.00;;;19.40;35.90;;;;;;6221435;23;20282;-74
2022/03/15 08:25:28;;;;;;;3.92;3.25;;;19.40;35.90;;;;;;6195444;23;20236;-75
2022/03/15 08:27:56;;;;;;;4.05;3.30;;;19.50;35.90;;;;;;6193953;23;20192;-73
2022/03/15 08:30:24;;;;;;;3.38;2.97;;;19.50;35.90;;;;;;6192913;23;20501;-73
2022/03/15 08:32:52;;;;;;;3.42;2.70;;;19.50;35.90;;;;;;6193399;23;20560;-73
2022/03/15 08:35:21;;;;;;;4.45;3.13;;;19.60;36.00;;;;;;6194392;23;20175;-73
2022/03/15 08:37:50;;;;;;;2.90;2.70;;;19.60;35.80;;;;;;6194309;23;20200;-73
2022/03/15 08:40:17;;;;;;;3.45;3.00;;;19.60;35.70;;;;;;6193701;23;20203;-73
2022/03/15 08:42:45;;;;;;;3.85;3.30;;;19.60;35.70;;;;;;6193295;23;20179;-73
2022/03/15 08:45:13;;;;;;;3.72;2.95;;;19.70;35.60;;;;;;6220308;23;20214;-73
2022/03/15 08:47:41;;;;;;;4.43;3.20;;;19.70;35.60;;;;;;6192811;23;20187;-73
2022/03/15 08:50:08;;;;;;;3.30;3.00;;;19.70;35.60;;;;;;6219693;23;20257;-73
2022/03/15 08:52:37;;;;;;;3.40;2.97;;;19.70;35.50;;;;;;6217944;23;20239;-73
2022/03/15 08:55:05;;;;;;;5.97;3.55;;;19.70;35.50;;;;;;6218927;23;20552;-73
2022/03/15 08:57:33;;;;;;;3.40;3.03;;;19.70;35.50;;;;;;6191590;23;20723;-73
2022/03/15 09:00:02;;;;;;;3.50;3.10;;;19.70;35.50;;;;;;6192320;23;20179;-73
2022/03/15 09:02:30;;;;;;;4.30;3.20;;;19.80;35.70;;;;;;6191974;23;20670;-73
2022/03/15 09:04:57;;;;;;;3.75;3.30;;;19.80;35.60;;;;;;6192557;23;20253;-73
2022/03/15 09:07:24;;;;;;;3.22;2.85;;;19.80;35.60;;;;;;6192663;23;20195;-73
2022/03/15 09:09:54;;;;;;;3.42;3.13;;;19.80;35.60;;;;;;6193334;23;20176;-73
2022/03/15 09:12:21;;;;;;;3.67;2.85;;;19.80;35.40;;;;;;6193837;23;20174;-73
2022/03/15 09:14:49;;;;;;;3.67;3.30;;;19.80;35.50;;;;;;6193347;23;20175;-73
2022/03/15 09:17:17;;;;;;;4.13;3.28;;;19.80;35.40;;;;;;6193343;23;20278;-73
2022/03/15 09:19:44;;;;;;;3.42;3.13;;;19.80;35.40;;;;;;6192574;23;20174;-73
2022/03/15 09:22:14;;;;;;;5.50;3.42;;;19.90;35.50;;;;;;6192270;23;20171;-73
2022/03/15 09:24:42;;;;;;;3.40;3.10;;;19.90;35.50;;;;;;6217863;23;20234;-73
2022/03/15 09:27:12;;;;;;;4.38;3.40;;;19.90;35.50;;;;;;6191491;23;20192;-73
2022/03/15 09:29:39;;;;;;;3.65;3.05;;;19.90;35.60;;;;;;6191244;23;20524;-73
2022/03/15 09:32:10;;;;;;;4.85;3.50;;;19.90;35.60;;;;;;6190843;23;20176;-73
2022/03/15 09:34:38;;;;;;;6.03;3.38;;;19.90;36.30;;;;;;6190526;23;20167;-73
2022/03/15 09:37:05;;;;;;;3.75;2.85;;;19.90;35.70;;;;;;6191515;23;20187;-73
2022/03/15 09:39:33;;;;;;;5.22;3.38;;;19.90;35.80;;;;;;6191271;23;20175;-73
2022/03/15 09:42:01;;;;;;;4.45;3.10;;;19.90;35.80;;;;;;6193042;23;20250;-73
2022/03/15 09:44:30;;;;;;;3.42;3.13;;;19.90;35.90;;;;;;6192190;23;20510;-73
2022/03/15 09:47:01;;;;;;;3.80;3.40;;;19.90;36.00;;;;;;6192210;23;20249;-73
2022/03/15 09:49:28;;;;;;;3.70;3.20;;;19.90;36.00;;;;;;6192686;23;20194;-73
2022/03/15 09:51:56;;;;;;;3.65;3.35;;;19.90;36.00;;;;;;6192276;23;20550;-73
2022/03/15 09:54:24;;;;;;;3.60;2.95;;;19.90;36.00;;;;;;6192583;23;20613;-73
2022/03/15 09:56:52;;;;;;;4.18;2.72;;;19.90;36.10;;;;;;6192239;23;20199;-73
2022/03/15 09:59:20;;;;;;;4.50;3.08;;;19.90;36.00;;;;;;6219106;23;20172;-73
2022/03/15 10:01:51;;;;;;;3.47;3.00;;;19.90;36.10;;;;;;6191978;23;20179;-73
2022/03/15 10:04:18;;;;;;;3.45;3.15;;;19.90;36.10;;;;;;6192716;23;20208;-73
2022/03/15 10:06:46;;;;;;;5.03;3.25;;;19.90;36.10;;;;;;6193139;23;20171;-73
2022/03/15 10:09:14;;;;;;;3.55;3.00;;;20.00;36.10;;;;;;6192574;23;20192;-73
2022/03/15 10:11:42;;;;;;;4.55;3.35;;;19.90;36.10;;;;;;6217046;23;20172;-73
2022/03/15 10:14:09;;;;;;;3.45;3.10;;;19.90;36.10;;;;;;6191958;23;20171;-73
2022/03/15 10:16:40;;;;;;;5.32;3.17;;;19.90;36.10;;;;;;6191919;23;20172;-73
2022/03/15 10:19:09;;;;;;;3.78;3.05;;;19.90;36.10;;;;;;6191602;23;20206;-73
2022/03/15 10:21:41;;;;;;;4.70;3.17;;;20.00;36.80;;;;;;6218438;23;20219;-73
2022/03/15 10:24:10;;;;;;;4.00;3.03;;;20.00;36.20;;;;;;6191753;23;20290;-73
2022/03/15 10:26:38;;;;;;;3.42;3.03;;;20.00;36.30;;;;;;6192326;23;20172;-73
2022/03/15 10:29:06;;;;;;;6.03;2.92;;;20.00;36.20;;;;;;6218326;23;20187;-73
2022/03/15 10:31:34;;;;;;;3.30;3.00;;;19.90;36.20;;;;;;6192230;23;20198;-73
2022/03/15 10:34:03;;;;;;;3.85;3.03;;;20.00;36.40;;;;;;6192071;23;20246;-73
2022/03/15 10:36:38;;;;;;;4.03;3.47;;;20.00;36.20;;;;;;6191743;23;20258;-73
2022/03/15 10:39:06;;;;;;;4.03;3.17;;;20.00;36.10;;;;;;6191318;23;20278;-73
2022/03/15 10:41:48;;;;;;;3.45;3.13;;;20.00;36.10;;;;;;6191587;23;20180;-73
2022/03/15 10:44:21;;;;;;;3.35;3.03;;;20.00;36.10;;;;;;6192010;23;20171;-73
2022/03/15 10:47:03;;;;;;;4.13;3.35;;;20.00;36.10;;;;;;6191037;23;20597;-73
2022/03/15 10:49:31;;;;;;;3.65;3.35;;;20.00;36.10;;;;;;6191001;23;20175;-73
2022/03/15 10:52:00;;;;;;;3.67;3.30;;;20.00;36.10;;;;;;6218107;23;20241;-73
2022/03/15 10:54:28;;;;;;;3.63;3.15;;;20.00;36.80;;;;;;6191400;23;20179;-73
2022/03/15 10:56:57;;;;;;;4.28;3.85;;;20.00;36.20;;;;;;6191818;23;20195;-73
2022/03/15 10:59:24;;;;;;;3.80;3.38;;;20.00;36.40;;;;;;6218809;23;20191;-73
2022/03/15 11:01:52;;;;;;;4.90;4.38;;;20.00;36.60;;;;;;6191429;23;20191;-73
2022/03/15 11:04:20;;;;;;;4.00;3.70;;;20.00;36.70;;;;;;6191889;23;20172;-72
2022/03/15 11:06:48;;;;;;;4.07;3.63;;;20.00;36.70;;;;;;6191377;23;20168;-71
2022/03/15 11:09:24;;;;;;;4.13;3.72;;;20.00;36.70;;;;;;6191946;23;20167;-71
2022/03/15 11:11:59;;;;;;;4.07;3.20;;;20.00;36.90;;;;;;6191187;23;20230;-71
2022/03/15 11:14:39;;;;;;;3.85;3.10;;;20.00;37.00;;;;;;6191809;23;20170;-71
2022/03/15 11:17:08;;;;;;;4.57;3.40;;;20.00;37.00;;;;;;6192177;23;20164;-71
2022/03/15 11:19:39;;;;;;;4.90;4.40;;;20.00;37.20;;;;;;6191825;23;20171;-71
2022/03/15 11:22:07;;;;;;;4.28;3.88;;;20.00;37.00;;;;;;6192145;23;20174;-71
2022/03/15 11:24:38;;;;;;;4.55;3.80;;;20.10;37.10;;;;;;6191733;23;20167;-71
2022/03/15 11:27:06;;;;;;;3.92;3.55;;;20.10;37.20;;;;;;6192270;23;20171;-71
2022/03/15 11:29:34;;;;;;;4.05;3.65;;;20.10;37.20;;;;;;6191796;23;20172;-71
2022/03/15 11:32:02;;;;;;;3.85;3.40;;;20.10;37.10;;;;;;6191847;23;20308;-71
2022/03/15 11:34:29;;;;;;;4.22;3.70;;;20.10;37.20;;;;;;6191843;23;20194;-71
2022/03/15 11:36:56;;;;;;;4.28;3.72;;;20.10;37.20;;;;;;6191241;23;20202;-71
2022/03/15 11:39:24;;;;;;;4.50;4.10;;;20.10;37.30;;;;;;6190967;23;20180;-71
2022/03/15 11:41:53;;;;;;;4.25;3.90;;;20.10;37.50;;;;;;6191286;23;20231;-71
2022/03/15 11:44:22;;;;;;;4.38;3.30;;;20.10;38.30;;;;;;6191670;23;20346;-71
2022/03/15 11:46:57;;;;;;;3.70;3.30;;;20.10;37.60;;;;;;6191955;23;20175;-71
2022/03/15 11:49:29;;;;;;;3.78;3.38;;;20.10;37.40;;;;;;6192596;23;20167;-71
2022/03/15 11:52:03;;;;;;;4.13;3.70;;;20.10;37.90;;;;;;6192752;23;20171;-71
2022/03/15 11:54:37;;;;;;;3.60;3.28;;;20.10;37.20;;;;;;6192665;23;20543;-71
2022/03/15 11:57:10;;;;;;;3.50;3.20;;;20.10;37.30;;;;;;6193345;23;20187;-71
2022/03/15 11:59:47;;;;;;;3.63;3.33;;;20.10;37.50;;;;;;6192014;23;20183;-71
2022/03/15 12:02:16;;;;;;;3.95;3.47;;;20.10;37.50;;;;;;6218559;23;20163;-71
2022/03/15 12:04:44;;;;;;;3.67;3.38;;;20.10;37.50;;;;;;6190952;23;20509;-71
2022/03/15 12:07:14;;;;;;;3.80;3.42;;;20.10;37.50;;;;;;6192648;23;20230;-71
2022/03/15 12:09:47;;;;;;;3.60;3.30;;;20.10;37.50;;;;;;6192025;23;20544;-71
2022/03/15 12:12:18;;;;;;;3.80;3.50;;;20.10;37.60;;;;;;6191808;23;20170;-72
2022/03/15 12:14:47;;;;;;;4.15;3.75;;;20.10;37.60;;;;;;6192075;23;20655;-72
2022/03/15 12:17:14;;;;;;;3.40;3.15;;;20.10;37.60;;;;;;6218839;23;20215;-72
2022/03/15 12:19:44;;;;;;;3.88;3.50;;;20.10;37.50;;;;;;6219180;23;20183;-72
2022/03/15 12:25:05;;;;;;;4.25;3.28;;;20.10;37.60;;;;;;6216897;23;20191;-64
2022/03/15 12:27:39;;;;;;;3.72;3.40;;;20.10;37.50;;;;;;6217014;23;20170;-64
2022/03/15 12:30:09;;;;;;;3.60;3.30;;;20.10;37.50;;;;;;6191428;23;20167;-64
2022/03/15 12:32:37;;;;;;;3.55;3.25;;;20.10;37.60;;;;;;6183305;23;20192;-64
2022/03/15 12:35:08;;;;;;;4.18;3.42;;;20.10;37.50;;;;;;6187715;23;20247;-64
2022/03/15 12:37:37;;;;;;;4.00;3.30;;;20.10;37.50;;;;;;6161161;23;20223;-64
2022/03/15 12:40:06;;;;;;;3.50;3.20;;;20.10;37.50;;;;;;6188297;23;20170;-64
2022/03/15 12:42:35;;;;;;;4.00;3.60;;;20.10;37.50;;;;;;6188441;23;20681;-64
2022/03/15 12:45:04;;;;;;;3.58;3.28;;;20.10;38.20;;;;;;6189542;23;20554;-64
2022/03/15 12:47:32;;;;;;;3.58;3.28;;;20.10;37.60;;;;;;6189250;23;20164;-64
2022/03/15 12:50:06;;;;;;;3.50;3.20;;;20.10;37.70;;;;;;6162068;23;20255;-63
2022/03/15 12:52:37;;;;;;;4.93;3.33;;;20.10;37.70;;;;;;6162449;23;20202;-64
2022/03/15 12:55:06;;;;;;;3.67;3.35;;;20.10;37.70;;;;;;6162439;23;20171;-64
2022/03/15 12:57:34;;;;;;;4.55;3.45;;;20.10;37.80;;;;;;6161793;23;20283;-63
2022/03/15 13:00:04;;;;;;;3.30;3.00;;;20.00;37.90;;;;;;6161174;23;20188;-64
2022/03/15 13:02:33;;;;;;;3.92;3.50;;;20.00;38.10;;;;;;6187931;23;20184;-64
2022/03/15 13:05:11;;;;;;;4.28;3.70;;;20.00;38.00;;;;;;6161794;23;20195;-64